createdAt,value
2019-02-04T00:00:42.466Z,99.90
2019-02-04T00:03:12.727Z,99.90
2019-02-04T00:05:41.676Z,99.90
2019-02-04T00:08:10.651Z,99.90
2019-02-04T00:10:39.810Z,99.90
2019-02-04T00:13:08.633Z,99.90
2019-02-04T00:15:37.879Z,99.90
2019-02-04T00:18:07.159Z,99.90
2019-02-04T00:20:36.221Z,99.90
2019-02-04T00:23:05.236Z,99.90
2019-02-04T00:25:34.552Z,99.90
2019-02-04T00:28:03.434Z,99.90
2019-02-04T00:30:32.578Z,99.90
2019-02-04T00:33:01.579Z,99.90
2019-02-04T00:35:30.357Z,99.90
2019-02-04T00:37:59.243Z,99.90
2019-02-04T00:40:30.699Z,99.90
2019-02-04T00:42:59.562Z,99.90
2019-02-04T00:45:28.640Z,99.90
2019-02-04T00:47:57.402Z,99.90
2019-02-04T00:50:26.331Z,99.90
2019-02-04T00:52:55.407Z,99.90
2019-02-04T00:55:24.527Z,99.90
2019-02-04T00:57:53.328Z,99.90
2019-02-04T01:00:26.733Z,99.90
2019-02-04T01:02:56.089Z,99.90
2019-02-04T01:05:25.419Z,99.90
2019-02-04T01:07:55.039Z,99.90
2019-02-04T01:10:25.561Z,99.90
2019-02-04T01:12:54.667Z,99.90
2019-02-04T01:15:23.422Z,99.90
2019-02-04T01:17:52.312Z,99.90
2019-02-04T01:20:23.650Z,99.90
2019-02-04T01:22:53.088Z,99.90
2019-02-04T01:25:22.102Z,99.90
2019-02-04T01:27:50.976Z,99.90
2019-02-04T01:30:20.634Z,99.90
2019-02-04T01:32:49.629Z,99.90
2019-02-04T01:35:18.643Z,99.90
2019-02-04T01:37:47.774Z,99.90
2019-02-04T01:40:18.908Z,99.90
2019-02-04T01:42:48.182Z,99.90
2019-02-04T01:45:17.043Z,99.90
2019-02-04T01:47:45.944Z,99.90
2019-02-04T01:50:16.750Z,99.90
2019-02-04T01:52:45.647Z,99.90
2019-02-04T01:55:14.589Z,99.90
2019-02-04T01:57:43.988Z,99.90
2019-02-04T02:00:18.535Z,99.90
2019-02-04T02:02:47.307Z,99.90
2019-02-04T02:05:16.512Z,99.90
2019-02-04T02:07:45.411Z,99.90
2019-02-04T02:10:17.132Z,99.90
2019-02-04T02:12:46.406Z,99.90
2019-02-04T02:15:15.317Z,99.90
2019-02-04T02:17:44.392Z,99.90
2019-02-04T02:20:15.740Z,99.90
2019-02-04T02:22:44.941Z,99.90
2019-02-04T02:25:13.803Z,99.90
2019-02-04T02:27:42.659Z,99.90
2019-02-04T02:30:14.984Z,99.90
2019-02-04T02:32:43.859Z,99.90
2019-02-04T02:35:12.778Z,99.90
2019-02-04T02:37:41.826Z,99.90
2019-02-04T02:40:25.638Z,99.90
2019-02-04T02:42:54.762Z,99.90
2019-02-04T02:45:23.822Z,99.90
2019-02-04T02:47:52.687Z,99.90
2019-02-04T02:50:21.607Z,99.90
2019-02-04T02:52:50.439Z,99.90
2019-02-04T02:55:19.231Z,99.90
2019-02-04T02:57:48.094Z,99.90
2019-02-04T03:00:19.271Z,99.90
2019-02-04T03:02:48.451Z,99.90
2019-02-04T03:05:18.399Z,99.90
2019-02-04T03:07:47.179Z,99.90
2019-02-04T03:10:18.824Z,99.90
2019-02-04T03:12:47.928Z,99.90
2019-02-04T03:15:16.842Z,99.90
2019-02-04T03:17:51.880Z,99.90
2019-02-04T03:20:16.283Z,99.90
2019-02-04T03:22:45.054Z,99.90
2019-02-04T03:25:13.970Z,99.90
2019-02-04T03:27:43.187Z,99.90
2019-02-04T03:30:16.232Z,99.90
2019-02-04T03:32:45.002Z,99.90
2019-02-04T03:35:14.265Z,99.90
2019-02-04T03:37:43.233Z,99.90
2019-02-04T03:40:14.302Z,99.90
2019-02-04T03:42:43.223Z,99.90
2019-02-04T03:45:12.406Z,99.90
2019-02-04T03:47:41.365Z,99.90
2019-02-04T03:50:13.505Z,99.90
2019-02-04T03:52:42.419Z,99.90
2019-02-04T03:55:12.100Z,99.90
2019-02-04T03:57:40.950Z,99.90
2019-02-04T04:00:21.874Z,99.90
2019-02-04T04:02:51.511Z,99.90
2019-02-04T04:05:20.430Z,99.90
2019-02-04T04:07:49.278Z,99.90
2019-02-04T04:10:18.198Z,99.90
2019-02-04T04:12:47.285Z,99.90
2019-02-04T04:15:17.076Z,99.90
2019-02-04T04:17:46.062Z,99.90
2019-02-04T04:20:16.020Z,99.90
2019-02-04T04:22:45.010Z,99.90
2019-02-04T04:25:14.880Z,99.90
2019-02-04T04:27:44.227Z,99.90
2019-02-04T04:30:16.568Z,99.90
2019-02-04T04:32:45.502Z,99.90
2019-02-04T04:35:14.773Z,99.90
2019-02-04T04:37:44.160Z,99.90
2019-02-04T04:40:13.201Z,99.90
2019-02-04T04:42:42.110Z,99.90
2019-02-04T04:45:13.026Z,99.90
2019-02-04T04:47:41.820Z,99.90
2019-02-04T04:50:11.456Z,99.90
2019-02-04T04:52:40.373Z,99.90
2019-02-04T04:55:10.719Z,99.90
2019-02-04T04:57:39.668Z,99.90
2019-02-04T05:00:11.504Z,99.90
2019-02-04T05:02:40.650Z,99.90
2019-02-04T05:05:10.469Z,99.90
2019-02-04T05:07:39.342Z,99.90
2019-02-04T05:10:09.768Z,99.90
2019-02-04T05:12:38.647Z,99.90
2019-02-04T05:15:09.048Z,99.90
2019-02-04T05:17:38.343Z,99.90
2019-02-04T05:20:11.847Z,99.90
2019-02-04T05:22:41.244Z,99.90
2019-02-04T05:25:10.475Z,99.90
2019-02-04T05:27:39.566Z,99.90
2019-02-04T05:30:11.303Z,99.90
2019-02-04T05:32:40.411Z,99.90
2019-02-04T05:35:09.578Z,99.90
2019-02-04T05:37:38.463Z,99.90
2019-02-04T05:40:09.207Z,99.90
2019-02-04T05:42:38.011Z,99.90
2019-02-04T05:45:08.332Z,99.90
2019-02-04T05:47:37.099Z,99.90
2019-02-04T05:50:07.545Z,99.90
2019-02-04T05:52:36.463Z,99.90
2019-02-04T05:55:05.772Z,99.90
2019-02-04T05:57:34.626Z,99.90
2019-02-04T06:00:03.683Z,99.90
2019-02-04T06:02:32.431Z,99.90
2019-02-04T06:05:01.564Z,99.90
2019-02-04T06:07:30.880Z,99.90
2019-02-04T06:09:59.945Z,99.90
2019-02-04T06:12:28.870Z,99.90
2019-02-04T06:14:57.763Z,99.90
2019-02-04T06:17:26.603Z,99.90
2019-02-04T06:19:55.374Z,99.90
2019-02-04T06:22:24.523Z,99.90
2019-02-04T06:24:53.651Z,99.90
2019-02-04T06:27:22.791Z,99.90
2019-02-04T06:29:52.050Z,99.90
2019-02-04T06:32:20.839Z,99.90
2019-02-04T06:34:49.921Z,99.90
2019-02-04T06:37:18.796Z,99.90
2019-02-04T06:39:47.898Z,99.90
2019-02-04T06:42:16.697Z,99.90
2019-02-04T06:44:45.544Z,99.90
2019-02-04T06:47:15.922Z,99.90
2019-02-04T06:49:44.984Z,99.90
2019-02-04T06:52:13.856Z,99.90
2019-02-04T06:54:42.729Z,99.90
2019-02-04T06:57:11.560Z,99.90
2019-02-04T06:59:40.585Z,99.90
2019-02-04T07:02:09.551Z,99.90
2019-02-04T07:04:38.644Z,99.90
2019-02-04T07:07:07.414Z,99.90
2019-02-04T07:09:36.221Z,99.90
2019-02-04T07:12:05.445Z,99.90
2019-02-04T07:14:34.790Z,99.90
2019-02-04T07:17:03.794Z,99.90
2019-02-04T07:19:32.868Z,99.90
2019-02-04T07:22:01.882Z,99.90
2019-02-04T07:24:42.172Z,99.90
2019-02-04T07:27:01.191Z,99.90
2019-02-04T07:29:30.014Z,99.90
2019-02-04T07:31:59.266Z,99.90
2019-02-04T07:34:28.139Z,99.90
2019-02-04T07:36:56.986Z,99.90
2019-02-04T07:39:25.783Z,99.90
2019-02-04T07:41:54.973Z,99.90
2019-02-04T07:44:24.135Z,99.90
2019-02-04T07:46:53.070Z,99.90
2019-02-04T07:49:21.906Z,99.90
2019-02-04T07:51:50.714Z,99.90
2019-02-04T07:54:19.656Z,99.90
2019-02-04T07:56:48.547Z,99.90
2019-02-04T07:59:17.743Z,99.90
2019-02-04T08:01:46.735Z,99.90
2019-02-04T08:04:15.483Z,99.90
2019-02-04T08:06:44.258Z,99.90
2019-02-04T08:09:13.101Z,99.90
2019-02-04T08:11:41.935Z,99.90
2019-02-04T08:14:11.236Z,99.90
2019-02-04T08:16:40.109Z,99.90
2019-02-04T08:19:08.900Z,99.90
2019-02-04T08:21:37.806Z,99.90
2019-02-04T08:24:06.681Z,99.00
2019-02-04T08:26:35.539Z,98.90
2019-02-04T08:29:04.913Z,99.40
2019-02-04T08:31:33.898Z,99.30
2019-02-04T08:34:03.180Z,99.10
2019-02-04T08:36:43.035Z,97.40
2019-02-04T08:39:03.367Z,96.50
2019-02-04T08:41:32.292Z,91.70
2019-02-04T08:44:01.414Z,84.70
2019-02-04T08:46:30.274Z,76.10
2019-02-04T08:48:59.106Z,68.10
2019-02-04T08:51:28.051Z,62.30
2019-02-04T08:53:57.129Z,60.30
2019-02-04T08:56:26.129Z,54.10
2019-02-04T08:58:55.048Z,50.10
2019-02-04T09:01:23.962Z,53.80
2019-02-04T09:03:52.800Z,50.40
2019-02-04T09:06:21.727Z,44.50
2019-02-04T09:08:50.565Z,50.80
2019-02-04T09:11:19.732Z,54.50
2019-02-04T09:13:48.827Z,55.50
2019-02-04T09:16:18.181Z,56.20
2019-02-04T09:18:47.017Z,51.00
2019-02-04T09:21:15.787Z,51.80
2019-02-04T09:23:44.880Z,50.10
2019-02-04T09:26:14.077Z,56.60
2019-02-04T09:28:42.939Z,61.20
2019-02-04T09:31:12.054Z,59.00
2019-02-04T09:33:40.908Z,53.50
2019-02-04T09:36:09.904Z,52.70
2019-02-04T09:38:39.040Z,50.40
2019-02-04T09:41:08.347Z,53.60
2019-02-04T09:43:37.131Z,51.90
2019-02-04T09:46:06.335Z,55.40
2019-02-04T09:48:35.385Z,52.60
2019-02-04T09:51:04.490Z,51.50
2019-02-04T09:53:33.346Z,58.40
2019-02-04T09:56:02.752Z,63.90
2019-02-04T09:58:31.859Z,62.40
2019-02-04T10:01:00.834Z,61.90
2019-02-04T10:03:29.900Z,52.80
2019-02-04T10:05:58.952Z,53.90
2019-02-04T10:08:28.047Z,59.30
2019-02-04T10:10:56.893Z,65.50
2019-02-04T10:13:25.777Z,70.70
2019-02-04T10:15:54.762Z,70.70
2019-02-04T10:18:23.939Z,69.90
2019-02-04T10:20:53.057Z,74.70
2019-02-04T10:23:21.882Z,70.50
2019-02-04T10:25:50.773Z,69.40
2019-02-04T10:28:19.682Z,73.20
2019-02-04T10:30:48.602Z,72.70
2019-02-04T10:33:17.691Z,69.50
2019-02-04T10:35:46.626Z,65.00
2019-02-04T10:38:16.514Z,56.40
2019-02-04T10:40:45.594Z,53.10
2019-02-04T10:43:14.468Z,39.90
2019-02-04T10:45:43.342Z,32.90
2019-02-04T10:48:12.500Z,33.00
2019-02-04T10:50:46.361Z,39.40
2019-02-04T10:53:12.623Z,31.50
2019-02-04T10:55:41.551Z,33.80
2019-02-04T10:58:11.694Z,33.30
2019-02-04T11:00:41.286Z,29.80
2019-02-04T11:03:10.207Z,31.60
2019-02-04T11:05:39.747Z,35.20
2019-02-04T11:08:09.617Z,34.70
2019-02-04T11:10:38.635Z,34.50
2019-02-04T11:13:09.914Z,30.50
2019-02-04T11:15:39.000Z,29.90
2019-02-04T11:18:08.346Z,34.60
2019-02-04T11:20:37.644Z,35.40
2019-02-04T11:23:08.414Z,34.20
2019-02-04T11:25:37.437Z,35.70
2019-02-04T11:28:07.742Z,41.70
2019-02-04T11:30:42.656Z,33.30
2019-02-04T11:33:11.648Z,38.20
2019-02-04T11:35:40.592Z,44.90
2019-02-04T11:38:09.828Z,37.30
2019-02-04T11:40:39.323Z,42.80
2019-02-04T11:43:08.344Z,39.60
2019-02-04T11:45:37.571Z,54.80
2019-02-04T11:48:08.617Z,42.90
2019-02-04T11:50:37.771Z,47.10
2019-02-04T11:53:06.816Z,46.90
2019-02-04T11:55:35.776Z,44.40
2019-02-04T11:58:07.932Z,46.40
2019-02-04T12:00:36.366Z,38.60
2019-02-04T12:03:05.568Z,34.70
2019-02-04T12:05:34.483Z,35.30
2019-02-04T12:08:03.359Z,32.00
2019-02-04T12:10:38.247Z,45.10
2019-02-04T12:13:07.439Z,50.00
2019-02-04T12:15:36.658Z,47.80
2019-02-04T12:18:06.144Z,39.40
2019-02-04T12:20:35.598Z,37.90
2019-02-04T12:23:04.803Z,40.80
2019-02-04T12:25:34.029Z,36.30
2019-02-04T12:28:02.966Z,41.00
2019-02-04T12:30:33.858Z,46.20
2019-02-04T12:33:04.025Z,53.70
2019-02-04T12:35:33.154Z,55.10
2019-02-04T12:38:02.275Z,51.00
2019-02-04T12:40:31.333Z,57.30
2019-02-04T12:43:00.288Z,48.60
2019-02-04T12:45:31.036Z,45.70
2019-02-04T12:48:00.813Z,54.00
2019-02-04T12:50:30.156Z,47.50
2019-02-04T12:52:59.042Z,45.50
2019-02-04T12:55:29.115Z,45.50
2019-02-04T12:57:58.043Z,54.00
2019-02-04T13:00:28.155Z,55.50
2019-02-04T13:02:57.291Z,46.30
2019-02-04T13:05:40.627Z,44.50
2019-02-04T13:08:09.876Z,45.20
2019-02-04T13:10:39.020Z,48.60
2019-02-04T13:13:10.135Z,38.60
2019-02-04T13:15:39.254Z,41.10
2019-02-04T13:18:08.412Z,25.60
2019-02-04T13:20:37.638Z,28.60
2019-02-04T13:23:06.611Z,35.90
2019-02-04T13:25:35.569Z,22.20
2019-02-04T13:28:05.452Z,25.10
2019-02-04T13:30:34.375Z,29.30
2019-02-04T13:33:03.320Z,22.30
2019-02-04T13:35:32.219Z,18.30
2019-02-04T13:38:01.055Z,23.00
2019-02-04T13:40:30.207Z,17.70
2019-02-04T13:42:59.383Z,18.00
2019-02-04T13:45:28.721Z,13.70
2019-02-04T13:47:57.735Z,20.50
2019-02-04T13:50:26.851Z,12.00
2019-02-04T13:52:55.709Z,13.20
2019-02-04T13:55:29.567Z,10.40
2019-02-04T13:57:58.443Z,11.00
2019-02-04T14:00:27.635Z,11.70
2019-02-04T14:02:59.231Z,7.70
2019-02-04T14:05:31.153Z,11.20
2019-02-04T14:07:59.124Z,14.20
2019-02-04T14:10:33.198Z,18.70
2019-02-04T14:13:02.102Z,28.60
2019-02-04T14:15:35.289Z,25.60
2019-02-04T14:18:03.052Z,24.00
2019-02-04T14:20:31.826Z,25.10
2019-02-04T14:23:00.663Z,34.70
2019-02-04T14:25:29.677Z,18.30
2019-02-04T14:27:58.455Z,17.30
2019-02-04T14:30:30.021Z,21.70
2019-02-04T14:32:59.078Z,17.80
2019-02-04T14:35:27.974Z,28.40
2019-02-04T14:37:57.000Z,26.70
2019-02-04T14:40:26.268Z,25.70
2019-02-04T14:43:01.584Z,28.00
2019-02-04T14:45:48.236Z,28.60
2019-02-04T14:49:07.364Z,31.70
2019-02-04T14:51:49.227Z,31.40
2019-02-04T14:54:38.031Z,39.00
2019-02-04T14:57:44.687Z,34.30
2019-02-04T15:00:55.271Z,32.90
2019-02-04T15:03:45.378Z,34.90
2019-02-04T15:06:40.162Z,36.90
2019-02-04T15:09:28.591Z,49.00
2019-02-04T15:12:30.110Z,40.50
2019-02-04T15:15:25.849Z,41.30
2019-02-04T15:18:28.861Z,41.00
2019-02-04T15:21:25.735Z,41.50
2019-02-04T15:24:36.235Z,39.50
2019-02-04T15:27:36.731Z,42.90
2019-02-04T15:30:31.547Z,51.50
2019-02-04T15:33:21.276Z,53.50
2019-02-04T15:36:29.789Z,59.70
2019-02-04T15:39:09.543Z,65.90
2019-02-04T15:41:49.180Z,64.50
2019-02-04T15:44:29.468Z,70.30
2019-02-04T15:47:22.550Z,71.60
2019-02-04T15:50:22.789Z,72.30
2019-02-04T15:52:51.915Z,73.90
2019-02-04T15:55:21.163Z,75.70
2019-02-04T15:57:50.092Z,76.90
2019-02-04T16:00:19.431Z,78.50
2019-02-04T16:02:48.264Z,80.60
2019-02-04T16:05:17.356Z,80.90
2019-02-04T16:07:46.228Z,81.70
2019-02-04T16:10:19.218Z,83.00
2019-02-04T16:12:52.853Z,85.50
2019-02-04T16:15:21.954Z,88.00
2019-02-04T16:17:50.997Z,88.30
2019-02-04T16:20:26.696Z,86.10
2019-02-04T16:22:58.887Z,85.80
2019-02-04T16:25:26.702Z,83.00
2019-02-04T16:28:00.426Z,84.50
2019-02-04T16:30:29.233Z,85.40
2019-02-04T16:32:58.456Z,86.10
2019-02-04T16:35:27.462Z,87.20
2019-02-04T16:37:56.203Z,88.70
2019-02-04T16:40:24.994Z,88.10
2019-02-04T16:42:55.170Z,88.70
2019-02-04T16:45:24.551Z,86.70
2019-02-04T16:47:54.060Z,85.90
2019-02-04T16:50:25.241Z,85.30
2019-02-04T16:52:54.511Z,85.80
2019-02-04T16:55:23.467Z,86.20
2019-02-04T16:57:54.439Z,85.00
2019-02-04T17:00:25.182Z,81.20
2019-02-04T17:02:55.971Z,81.00
2019-02-04T17:05:25.649Z,79.80
2019-02-04T17:07:54.696Z,79.00
2019-02-04T17:10:23.888Z,77.50
2019-02-04T17:12:52.757Z,76.50
2019-02-04T17:15:21.579Z,75.00
2019-02-04T17:17:50.368Z,76.30
2019-02-04T17:20:21.603Z,74.00
2019-02-04T17:22:50.564Z,75.10
2019-02-04T17:25:19.455Z,75.10
2019-02-04T17:27:48.303Z,71.90
2019-02-04T17:30:19.517Z,70.60
2019-02-04T17:32:48.748Z,72.70
2019-02-04T17:35:17.751Z,70.00
2019-02-04T17:37:46.784Z,70.10
2019-02-04T17:40:17.922Z,69.80
2019-02-04T17:42:47.139Z,69.70
2019-02-04T17:45:16.936Z,69.30
2019-02-04T17:47:47.186Z,67.20
2019-02-04T17:50:17.679Z,69.50
2019-02-04T17:52:46.943Z,68.30
2019-02-04T17:55:17.894Z,68.40
2019-02-04T17:57:46.741Z,66.00
2019-02-04T18:00:21.673Z,67.50
2019-02-04T18:02:50.902Z,67.40
2019-02-04T18:05:20.298Z,63.80
2019-02-04T18:07:49.656Z,64.80
2019-02-04T18:10:18.645Z,62.60
2019-02-04T18:12:47.871Z,62.90
2019-02-04T18:15:17.732Z,63.10
2019-02-04T18:17:46.560Z,62.80
2019-02-04T18:20:16.162Z,64.30
2019-02-04T18:22:45.123Z,65.10
2019-02-04T18:25:14.892Z,69.00
2019-02-04T18:27:43.750Z,70.20
2019-02-04T18:30:15.426Z,71.80
2019-02-04T18:32:44.380Z,69.30
2019-02-04T18:35:13.606Z,68.40
2019-02-04T18:37:42.820Z,70.80
2019-02-04T18:40:13.707Z,71.60
2019-02-04T18:42:43.267Z,71.50
2019-02-04T18:45:20.610Z,71.20
2019-02-04T18:47:49.619Z,71.00
2019-02-04T18:50:20.014Z,71.20
2019-02-04T18:52:49.238Z,70.90
2019-02-04T18:55:20.739Z,71.20
2019-02-04T18:57:49.801Z,69.10
2019-02-04T19:00:21.026Z,71.50
2019-02-04T19:02:50.196Z,73.70
2019-02-04T19:05:20.395Z,74.50
2019-02-04T19:07:49.821Z,74.10
2019-02-04T19:10:19.666Z,76.50
2019-02-04T19:12:48.608Z,77.20
2019-02-04T19:15:19.539Z,79.10
2019-02-04T19:17:49.390Z,80.00
2019-02-04T19:20:20.459Z,80.00
2019-02-04T19:22:49.468Z,81.20
2019-02-04T19:25:18.800Z,81.70
2019-02-04T19:27:48.029Z,82.20
2019-02-04T19:30:23.144Z,82.40
2019-02-04T19:32:55.158Z,83.40
2019-02-04T19:35:24.126Z,84.20
2019-02-04T19:37:53.112Z,85.50
2019-02-04T19:40:22.092Z,86.20
2019-02-04T19:42:54.676Z,86.70
2019-02-04T19:45:24.410Z,87.70
2019-02-04T19:47:53.574Z,87.10
2019-02-04T19:50:25.666Z,87.60
2019-02-04T19:52:54.673Z,88.70
2019-02-04T19:55:23.798Z,89.30
2019-02-04T19:57:52.679Z,88.80
2019-02-04T20:00:21.716Z,89.60
2019-02-04T20:02:51.344Z,88.80
2019-02-04T20:05:21.414Z,88.70
2019-02-04T20:07:50.286Z,88.80
2019-02-04T20:10:22.163Z,88.30
2019-02-04T20:12:51.085Z,88.10
2019-02-04T20:15:22.228Z,87.70
2019-02-04T20:17:51.400Z,87.60
2019-02-04T20:20:20.449Z,87.30
2019-02-04T20:22:49.331Z,86.60
2019-02-04T20:25:23.247Z,85.90
2019-02-04T20:27:52.148Z,85.50
2019-02-04T20:30:29.927Z,85.40
2019-02-04T20:32:59.751Z,86.00
2019-02-04T20:35:29.041Z,85.90
2019-02-04T20:37:59.108Z,85.20
2019-02-04T20:40:28.387Z,85.30
2019-02-04T20:42:57.440Z,84.80
2019-02-04T20:45:26.796Z,84.40
2019-02-04T20:47:55.809Z,83.70
2019-02-04T20:50:27.504Z,83.30
2019-02-04T20:52:56.528Z,82.90
2019-02-04T20:55:25.492Z,81.60
2019-02-04T20:57:54.754Z,81.80
2019-02-04T21:00:25.677Z,81.90
2019-02-04T21:02:55.407Z,82.30
2019-02-04T21:05:24.843Z,81.60
2019-02-04T21:07:54.163Z,82.20
2019-02-04T21:10:24.235Z,81.50
2019-02-04T21:12:53.976Z,82.00
2019-02-04T21:15:23.483Z,81.20
2019-02-04T21:17:52.706Z,79.90
2019-02-04T21:20:23.145Z,79.70
2019-02-04T21:22:52.187Z,78.20
2019-02-04T21:25:21.989Z,76.60
2019-02-04T21:27:51.735Z,76.00
2019-02-04T21:30:22.953Z,74.50
2019-02-04T21:32:52.051Z,74.00
2019-02-04T21:35:21.274Z,73.50
2019-02-04T21:37:50.324Z,72.70
2019-02-04T21:40:19.898Z,74.00
2019-02-04T21:42:49.578Z,73.20
2019-02-04T21:45:20.068Z,73.30
2019-02-04T21:47:49.148Z,72.90
2019-02-04T21:50:22.256Z,73.50
2019-02-04T21:52:51.383Z,74.10
2019-02-04T21:55:20.877Z,73.30
2019-02-04T21:57:49.925Z,73.10
2019-02-04T22:00:24.573Z,72.30
2019-02-04T22:02:54.174Z,70.90
2019-02-04T22:05:24.600Z,69.70
2019-02-04T22:07:53.759Z,68.60
2019-02-04T22:10:23.821Z,67.20
2019-02-04T22:12:52.859Z,66.60
2019-02-04T22:15:21.926Z,67.00
2019-02-04T22:17:51.106Z,66.50
2019-02-04T22:20:20.339Z,65.40
2019-02-04T22:22:49.296Z,66.30
2019-02-04T22:25:20.301Z,63.00
2019-02-04T22:27:49.199Z,63.20
2019-02-04T22:30:23.040Z,62.80
2019-02-04T22:32:52.066Z,63.00
2019-02-04T22:35:20.860Z,61.30
2019-02-04T22:37:49.943Z,60.50
2019-02-04T22:40:24.115Z,60.10
2019-02-04T22:42:53.118Z,61.70
2019-02-04T22:45:22.346Z,60.10
2019-02-04T22:47:52.015Z,59.30
2019-02-04T22:50:25.794Z,61.60
2019-02-04T22:52:55.694Z,58.60
2019-02-04T22:55:31.996Z,59.60
2019-02-04T22:57:56.185Z,59.90
2019-02-04T23:00:44.284Z,59.00
2019-02-04T23:03:14.216Z,59.40
2019-02-04T23:05:43.112Z,59.70
2019-02-04T23:08:12.091Z,58.40
2019-02-04T23:10:41.775Z,57.80
2019-02-04T23:13:10.586Z,57.70
2019-02-04T23:15:39.499Z,59.00
2019-02-04T23:18:09.091Z,58.90
2019-02-04T23:20:38.116Z,58.50
2019-02-04T23:23:07.043Z,58.40
2019-02-04T23:25:43.116Z,59.80
2019-02-04T23:28:07.668Z,59.40
2019-02-04T23:30:36.962Z,61.90
2019-02-04T23:33:06.200Z,59.80
2019-02-04T23:35:35.691Z,60.40
2019-02-04T23:38:04.966Z,61.40
2019-02-04T23:40:33.963Z,61.10
2019-02-04T23:43:02.785Z,60.80
2019-02-04T23:45:32.338Z,60.80
2019-02-04T23:48:01.486Z,61.20
2019-02-04T23:50:30.659Z,61.90
2019-02-04T23:52:59.619Z,61.20
2019-02-04T23:55:28.448Z,62.50
2019-02-04T23:57:57.574Z,62.10
